createdAt,value
2023-12-23T00:02:39.163Z,-1.48
2023-12-23T00:05:42.177Z,-1.56
2023-12-23T00:08:44.460Z,-1.61
2023-12-23T00:11:46.981Z,-1.71
2023-12-23T00:14:49.574Z,-1.69
2023-12-23T00:17:52.268Z,-1.69
2023-12-23T00:20:55.198Z,-1.66
2023-12-23T00:23:57.828Z,-1.74
2023-12-23T00:27:00.280Z,-1.77
2023-12-23T00:30:02.835Z,-1.73
2023-12-23T00:33:06.841Z,-1.66
2023-12-23T00:36:09.681Z,-1.76
2023-12-23T00:39:12.165Z,-1.83
2023-12-23T00:42:15.074Z,-1.87
2023-12-23T00:45:17.847Z,-1.87
2023-12-23T00:48:20.304Z,-1.95
2023-12-23T00:51:23.454Z,-1.87
2023-12-23T00:54:25.755Z,-1.84
2023-12-23T00:57:28.267Z,-1.90
2023-12-23T01:00:30.979Z,-1.87
2023-12-23T01:03:33.771Z,-1.90
2023-12-23T01:06:36.187Z,-1.99
2023-12-23T01:09:38.533Z,-1.90
2023-12-23T01:12:41.220Z,-2.01
2023-12-23T01:15:43.618Z,-2.01
2023-12-23T01:18:46.047Z,-1.98
2023-12-23T01:21:48.661Z,-2.05
2023-12-23T01:24:51.251Z,-1.98
2023-12-23T01:27:54.250Z,-1.99
2023-12-23T01:30:57.028Z,-1.93
2023-12-23T01:33:59.743Z,-1.90
2023-12-23T01:37:02.204Z,-1.93
2023-12-23T01:40:05.952Z,-1.90
2023-12-23T01:43:08.597Z,-1.76
2023-12-23T01:46:13.277Z,-1.77
2023-12-23T01:49:15.846Z,-1.83
2023-12-23T01:52:18.362Z,-1.74
2023-12-23T01:55:21.591Z,-1.77
2023-12-23T01:58:24.169Z,-1.69
2023-12-23T02:01:26.641Z,-1.72
2023-12-23T02:04:29.072Z,-1.56
2023-12-23T02:07:31.677Z,-1.55
2023-12-23T02:10:35.017Z,-1.45
2023-12-23T02:13:50.097Z,-1.49
2023-12-23T02:16:54.531Z,-1.40
2023-12-23T02:19:58.362Z,-1.32
2023-12-23T02:23:01.061Z,-1.39
2023-12-23T02:26:03.876Z,-1.32
2023-12-23T02:29:07.772Z,-1.44
2023-12-23T02:32:11.193Z,-1.42
2023-12-23T02:35:14.490Z,-1.35
2023-12-23T02:38:16.953Z,-1.40
2023-12-23T02:41:19.487Z,-1.34
2023-12-23T02:44:23.371Z,-1.20
2023-12-23T02:47:25.852Z,-1.41
2023-12-23T02:50:28.481Z,-1.44
2023-12-23T02:53:30.950Z,-1.32
2023-12-23T02:56:33.524Z,-1.32
2023-12-23T02:59:36.102Z,-1.44
2023-12-23T03:02:38.617Z,-1.36
2023-12-23T03:05:41.412Z,-1.47
2023-12-23T03:08:45.194Z,-1.37
2023-12-23T03:11:48.981Z,-1.46
2023-12-23T03:14:51.201Z,-1.56
2023-12-23T03:17:54.121Z,-1.54
2023-12-23T03:20:56.759Z,-1.50
2023-12-23T03:23:59.657Z,-1.47
2023-12-23T03:27:02.429Z,-1.51
2023-12-23T03:30:05.458Z,-1.48
2023-12-23T03:33:08.199Z,-1.48
2023-12-23T03:36:10.810Z,-1.53
2023-12-23T03:39:13.145Z,-1.48
2023-12-23T03:42:15.706Z,-1.48
2023-12-23T03:45:18.478Z,-1.69
2023-12-23T03:48:20.939Z,-1.69
2023-12-23T03:51:24.708Z,-1.59
2023-12-23T03:54:27.040Z,-1.66
2023-12-23T03:57:29.423Z,-1.68
2023-12-23T04:00:32.399Z,-1.45
2023-12-23T04:03:38.240Z,-1.57
2023-12-23T04:06:43.644Z,-1.52
2023-12-23T04:09:47.182Z,-1.40
2023-12-23T04:12:50.010Z,-1.47
2023-12-23T04:15:52.701Z,-1.34
2023-12-23T04:18:55.166Z,-1.32
2023-12-23T04:21:58.424Z,-1.29
2023-12-23T04:25:00.780Z,-1.28
2023-12-23T04:28:03.602Z,-1.28
2023-12-23T04:31:06.848Z,-1.38
2023-12-23T04:34:09.557Z,-1.47
2023-12-23T04:37:12.712Z,-1.39
2023-12-23T04:40:17.128Z,-1.49
2023-12-23T04:43:20.072Z,-1.53
2023-12-23T04:46:23.858Z,-1.62
2023-12-23T04:49:26.732Z,-1.72
2023-12-23T04:52:29.236Z,-1.62
2023-12-23T04:55:33.769Z,-1.62
2023-12-23T04:58:36.636Z,-1.74
2023-12-23T05:01:39.395Z,-1.63
2023-12-23T05:04:44.147Z,-1.63
2023-12-23T05:07:48.859Z,-1.66
2023-12-23T05:10:51.913Z,-1.61
2023-12-23T05:13:54.302Z,-1.58
2023-12-23T05:16:56.708Z,-1.65
2023-12-23T05:19:59.136Z,-1.59
2023-12-23T05:23:01.563Z,-1.67
2023-12-23T05:26:04.154Z,-1.63
2023-12-23T05:29:06.833Z,-1.72
2023-12-23T05:32:10.721Z,-1.82
2023-12-23T05:35:13.280Z,-1.69
2023-12-23T05:38:15.701Z,-1.63
2023-12-23T05:41:18.094Z,-1.84
2023-12-23T05:44:20.848Z,-1.67
2023-12-23T05:47:23.464Z,-1.83
2023-12-23T05:50:25.909Z,-1.72
2023-12-23T05:53:28.682Z,-1.84
2023-12-23T05:56:31.358Z,-1.82
2023-12-23T05:59:34.081Z,-1.77
2023-12-23T06:02:36.536Z,-1.88
2023-12-23T06:05:39.647Z,-1.83
2023-12-23T06:08:42.076Z,-1.86
2023-12-23T06:11:44.819Z,-1.87
2023-12-23T06:14:47.415Z,-1.87
2023-12-23T06:17:52.490Z,-1.92
2023-12-23T06:20:55.039Z,-1.92
2023-12-23T06:23:57.367Z,-1.88
2023-12-23T06:26:59.730Z,-2.06
2023-12-23T06:30:02.360Z,-1.90
2023-12-23T06:33:05.834Z,-2.05
2023-12-23T06:36:09.613Z,-1.93
2023-12-23T06:39:11.981Z,-1.91
2023-12-23T06:42:14.384Z,-1.99
2023-12-23T06:45:17.767Z,-2.01
2023-12-23T06:48:20.637Z,-2.05
2023-12-23T06:51:23.190Z,-1.99
2023-12-23T06:54:25.703Z,-2.03
2023-12-23T06:57:27.978Z,-1.95
2023-12-23T07:00:30.389Z,-1.95
2023-12-23T07:03:32.772Z,-2.12
2023-12-23T07:06:36.152Z,-2.00
2023-12-23T07:09:38.662Z,-1.98
2023-12-23T07:12:41.655Z,-1.94
2023-12-23T07:15:44.627Z,-1.90
2023-12-23T07:18:47.913Z,-1.95
2023-12-23T07:21:54.403Z,-1.87
2023-12-23T07:24:57.357Z,-1.86
2023-12-23T07:27:59.815Z,-1.83
2023-12-23T07:31:02.234Z,-1.86
2023-12-23T07:34:04.769Z,-1.78
2023-12-23T07:37:07.190Z,-1.72
2023-12-23T07:40:10.201Z,-1.78
2023-12-23T07:43:12.563Z,-1.71
2023-12-23T07:46:14.944Z,-1.69
2023-12-23T07:49:17.507Z,-1.67
2023-12-23T07:52:19.873Z,-1.58
2023-12-23T07:55:22.337Z,-1.54
2023-12-23T07:58:24.783Z,-1.57
2023-12-23T08:01:27.265Z,-1.54
2023-12-23T08:04:29.593Z,-1.61
2023-12-23T08:07:31.987Z,-1.44
2023-12-23T08:10:34.571Z,-1.45
2023-12-23T08:13:37.814Z,-1.37
2023-12-23T08:16:40.289Z,-1.34
2023-12-23T08:19:42.696Z,-1.36
2023-12-23T08:22:45.174Z,-1.48
2023-12-23T08:25:48.516Z,-1.39
2023-12-23T08:28:50.914Z,-1.23
2023-12-23T08:31:53.405Z,-1.27
2023-12-23T08:34:55.897Z,-1.28
2023-12-23T08:37:58.507Z,-1.43
2023-12-23T08:41:00.912Z,-1.31
2023-12-23T08:44:06.404Z,-1.25
2023-12-23T08:47:08.897Z,-1.33
2023-12-23T08:50:12.092Z,-1.17
2023-12-23T08:53:15.694Z,-1.14
2023-12-23T08:56:18.470Z,-1.21
2023-12-23T08:59:21.185Z,-1.20
2023-12-23T09:02:26.958Z,-1.23
2023-12-23T09:05:30.291Z,-1.23
2023-12-23T09:08:34.808Z,-1.05
2023-12-23T09:11:46.134Z,-1.03
2023-12-23T09:14:51.967Z,-1.15
2023-12-23T09:17:54.711Z,-1.14
2023-12-23T09:20:57.484Z,-1.22
2023-12-23T09:23:59.873Z,-1.25
2023-12-23T09:27:02.656Z,-1.25
2023-12-23T09:30:06.492Z,-1.08
2023-12-23T09:33:09.044Z,-1.22
2023-12-23T09:36:11.540Z,-1.15
2023-12-23T09:39:14.591Z,-1.16
2023-12-23T09:42:17.274Z,-1.26
2023-12-23T09:45:20.565Z,-1.26
2023-12-23T09:48:23.057Z,-1.19
2023-12-23T09:51:28.722Z,-1.13
2023-12-23T09:54:34.968Z,-1.14
2023-12-23T09:57:37.497Z,-1.13
2023-12-23T10:00:39.843Z,-1.20
2023-12-23T10:03:42.302Z,-1.08
2023-12-23T10:06:44.707Z,-1.09
2023-12-23T10:09:53.478Z,-1.11
2023-12-23T10:12:55.961Z,-1.20
2023-12-23T10:15:58.354Z,-1.24
2023-12-23T10:19:01.926Z,-1.06
2023-12-23T10:22:05.430Z,-1.03
2023-12-23T10:25:09.175Z,-0.89
2023-12-23T10:28:12.033Z,-0.92
2023-12-23T10:31:14.983Z,-0.73
2023-12-23T10:34:19.574Z,-0.63
2023-12-23T10:37:24.112Z,-0.51
2023-12-23T10:40:29.530Z,-0.41
2023-12-23T10:43:32.239Z,-0.35
2023-12-23T10:46:34.934Z,-0.35
2023-12-23T10:49:37.889Z,-0.46
2023-12-23T10:52:42.323Z,-0.38
2023-12-23T10:55:48.687Z,-0.39
2023-12-23T10:58:52.531Z,-0.42
2023-12-23T11:01:54.819Z,-0.24
2023-12-23T11:04:58.606Z,-0.40
2023-12-23T11:08:14.144Z,-0.40
2023-12-23T11:11:20.242Z,-0.36
2023-12-23T11:14:22.936Z,-0.32
2023-12-23T11:17:26.211Z,-0.29
2023-12-23T11:20:34.801Z,-0.34
2023-12-23T11:23:37.368Z,-0.38
2023-12-23T11:26:40.917Z,-0.42
2023-12-23T11:29:43.614Z,-0.27
2023-12-23T11:32:46.349Z,-0.27
2023-12-23T11:35:53.074Z,-0.39
2023-12-23T11:38:55.832Z,-0.33
2023-12-23T11:41:58.828Z,-0.43
2023-12-23T11:45:01.477Z,-0.26
2023-12-23T11:48:04.283Z,-0.33
2023-12-23T11:51:10.179Z,-0.35
2023-12-23T11:54:13.840Z,-0.34
2023-12-23T11:57:16.404Z,-0.39
2023-12-23T12:00:20.308Z,-0.31
2023-12-23T12:03:26.715Z,-0.35
2023-12-23T12:06:29.715Z,-0.28
2023-12-23T12:09:32.844Z,-0.31
2023-12-23T12:12:35.432Z,-0.34
2023-12-23T12:15:37.896Z,-0.32
2023-12-23T12:18:45.371Z,-0.24
2023-12-23T12:21:48.375Z,-0.21
2023-12-23T12:24:53.954Z,-0.07
2023-12-23T12:27:58.916Z,-0.21
2023-12-23T12:31:10.415Z,-0.04
2023-12-23T12:34:19.254Z,0.09
2023-12-23T12:37:21.878Z,0.23
2023-12-23T12:40:24.979Z,0.30
2023-12-23T12:43:33.100Z,0.31
2023-12-23T12:46:37.569Z,0.51
2023-12-23T12:49:59.392Z,0.50
2023-12-23T12:53:08.058Z,0.52
2023-12-23T12:56:15.672Z,0.54
2023-12-23T12:59:19.424Z,0.42
2023-12-23T13:02:24.345Z,0.51
2023-12-23T13:05:26.952Z,0.52
2023-12-23T13:08:29.645Z,0.69
2023-12-23T13:11:33.082Z,0.49
2023-12-23T13:14:36.963Z,0.46
2023-12-23T13:17:39.701Z,0.40
2023-12-23T13:20:42.459Z,0.31
2023-12-23T13:23:44.970Z,0.11
2023-12-23T13:26:47.535Z,0.03
2023-12-23T13:29:50.208Z,0.02
2023-12-23T13:32:52.994Z,0.01
2023-12-23T13:35:55.575Z,0.02
2023-12-23T13:38:58.087Z,-0.15
2023-12-23T13:42:01.131Z,-0.21
2023-12-23T13:45:06.053Z,-0.34
2023-12-23T13:48:08.892Z,-0.24
2023-12-23T13:51:11.740Z,-0.46
2023-12-23T13:54:14.165Z,-0.44
2023-12-23T13:57:17.037Z,-0.50
2023-12-23T14:00:19.777Z,-0.39
2023-12-23T14:03:22.248Z,-0.53
2023-12-23T14:06:24.734Z,-0.71
2023-12-23T14:09:27.190Z,-0.59
2023-12-23T14:12:29.702Z,-0.67
2023-12-23T14:15:32.414Z,-0.71
2023-12-23T14:18:35.687Z,-0.72
2023-12-23T14:21:38.682Z,-0.73
2023-12-23T14:24:41.573Z,-0.90
2023-12-23T14:27:47.057Z,-0.97
2023-12-23T14:30:49.644Z,-1.10
2023-12-23T14:33:57.030Z,-1.06
2023-12-23T14:36:59.411Z,-1.17
2023-12-23T14:40:01.838Z,-1.28
2023-12-23T14:43:04.289Z,-1.15
2023-12-23T14:46:06.676Z,-1.21
2023-12-23T14:49:10.524Z,-1.34
2023-12-23T14:52:13.189Z,-1.29
2023-12-23T14:55:16.653Z,-1.22
2023-12-23T14:58:19.021Z,-1.44
2023-12-23T15:01:21.776Z,-1.39
2023-12-23T15:04:24.695Z,-1.41
2023-12-23T15:07:29.016Z,-1.35
2023-12-23T15:10:31.751Z,-1.38
2023-12-23T15:13:39.146Z,-1.47
2023-12-23T15:16:42.969Z,-1.47
2023-12-23T15:19:45.445Z,-1.46
2023-12-23T15:22:47.980Z,-1.59
2023-12-23T15:25:50.849Z,-1.69
2023-12-23T15:28:54.199Z,-1.67
2023-12-23T15:31:56.661Z,-1.54
2023-12-23T15:34:59.277Z,-1.69
2023-12-23T15:38:01.835Z,-1.64
2023-12-23T15:41:04.452Z,-1.54
2023-12-23T15:44:07.231Z,-1.49
2023-12-23T15:47:10.774Z,-1.61
2023-12-23T15:50:14.399Z,-1.63
2023-12-23T15:53:20.768Z,-1.61
2023-12-23T15:56:23.967Z,-1.55
2023-12-23T15:59:26.711Z,-1.53
2023-12-23T16:02:29.316Z,-1.58
2023-12-23T16:05:31.983Z,-1.59
2023-12-23T16:08:34.681Z,-1.50
2023-12-23T16:11:38.873Z,-1.50
2023-12-23T16:14:43.248Z,-1.50
2023-12-23T16:17:46.300Z,-1.60
2023-12-23T16:20:53.374Z,-1.76
2023-12-23T16:23:55.997Z,-1.74
2023-12-23T16:26:58.495Z,-1.74
2023-12-23T16:30:02.745Z,-1.70
2023-12-23T16:33:05.333Z,-1.70
2023-12-23T16:36:15.433Z,-1.81
2023-12-23T16:39:21.187Z,-1.84
2023-12-23T16:42:23.555Z,-1.92
2023-12-23T16:45:26.062Z,-1.92
2023-12-23T16:48:28.495Z,-2.03
2023-12-23T16:51:31.235Z,-1.99
2023-12-23T16:54:33.602Z,-1.95
2023-12-23T16:57:37.694Z,-1.98
2023-12-23T17:00:40.278Z,-1.98
2023-12-23T17:03:44.001Z,-2.05
2023-12-23T17:06:46.673Z,-2.17
2023-12-23T17:09:49.294Z,-2.30
2023-12-23T17:12:51.910Z,-2.22
2023-12-23T17:15:54.608Z,-2.22
2023-12-23T17:18:57.466Z,-2.29
2023-12-23T17:22:00.390Z,-2.24
2023-12-23T17:25:02.927Z,-2.29
2023-12-23T17:28:10.278Z,-2.41
2023-12-23T17:31:14.584Z,-2.33
2023-12-23T17:34:17.184Z,-2.39
2023-12-23T17:37:19.622Z,-2.31
2023-12-23T17:40:21.959Z,-2.38
2023-12-23T17:43:24.262Z,-2.59
2023-12-23T17:46:28.524Z,-2.62
2023-12-23T17:49:30.927Z,-2.52
2023-12-23T17:52:33.587Z,-2.48
2023-12-23T17:55:36.340Z,-2.52
2023-12-23T17:58:42.030Z,-2.60
2023-12-23T18:01:45.664Z,-2.55
2023-12-23T18:04:48.797Z,-2.54
2023-12-23T18:07:54.653Z,-2.66
2023-12-23T18:10:57.684Z,-2.39
2023-12-23T18:14:00.710Z,-2.50
2023-12-23T18:17:04.693Z,-2.41
2023-12-23T18:20:07.419Z,-2.58
2023-12-23T18:23:13.725Z,-2.51
2023-12-23T18:26:16.287Z,-2.28
2023-12-23T18:29:19.009Z,-2.44
2023-12-23T18:32:21.812Z,-2.47
2023-12-23T18:35:24.529Z,-2.39
2023-12-23T18:38:28.862Z,-2.47
2023-12-23T18:41:31.420Z,-2.24
2023-12-23T18:44:34.050Z,-2.17
2023-12-23T18:47:37.113Z,-2.16
2023-12-23T18:50:40.060Z,-2.26
2023-12-23T18:53:47.762Z,-2.06
2023-12-23T18:56:50.508Z,-2.17
2023-12-23T18:59:52.969Z,-2.09
2023-12-23T19:02:56.062Z,-2.09
2023-12-23T19:05:59.889Z,-2.00
2023-12-23T19:09:02.457Z,-1.97
2023-12-23T19:12:05.357Z,-1.91
2023-12-23T19:15:08.371Z,-2.03
2023-12-23T19:18:11.113Z,-2.18
2023-12-23T19:21:13.886Z,-2.00
2023-12-23T19:24:17.287Z,-1.98
2023-12-23T19:27:19.814Z,-2.02
2023-12-23T19:30:22.261Z,-1.96
2023-12-23T19:33:28.110Z,-2.06
2023-12-23T19:36:31.608Z,-2.03
2023-12-23T19:39:34.021Z,-2.07
2023-12-23T19:42:36.332Z,-2.10
2023-12-23T19:45:38.969Z,-2.05
2023-12-23T19:48:43.102Z,-2.13
2023-12-23T19:51:45.571Z,-2.22
2023-12-23T19:54:47.906Z,-2.15
2023-12-23T19:57:50.335Z,-2.11
2023-12-23T20:00:52.986Z,-2.06
2023-12-23T20:03:56.619Z,-2.07
2023-12-23T20:06:59.114Z,-2.09
2023-12-23T20:10:03.102Z,-2.21
2023-12-23T20:13:07.064Z,-2.25
2023-12-23T20:16:09.779Z,-2.12
2023-12-23T20:19:13.996Z,-2.09
2023-12-23T20:22:16.561Z,-2.15
2023-12-23T20:25:18.976Z,-2.23
2023-12-23T20:28:21.473Z,-2.21
2023-12-23T20:31:23.808Z,-2.24
2023-12-23T20:34:29.804Z,-2.29
2023-12-23T20:37:32.225Z,-2.14
2023-12-23T20:40:34.690Z,-2.13
2023-12-23T20:43:37.286Z,-2.23
2023-12-23T20:46:41.897Z,-2.22
2023-12-23T20:49:44.378Z,-2.17
2023-12-23T20:52:46.958Z,-2.16
2023-12-23T20:55:49.623Z,-2.07
2023-12-23T20:58:56.651Z,-2.08
2023-12-23T21:01:59.003Z,-2.13
2023-12-23T21:05:01.853Z,-2.13
2023-12-23T21:08:05.641Z,-2.03
2023-12-23T21:11:08.160Z,-1.94
2023-12-23T21:14:10.883Z,-1.97
2023-12-23T21:17:13.767Z,-1.93
2023-12-23T21:20:16.322Z,-1.92
2023-12-23T21:23:18.885Z,-1.91
2023-12-23T21:26:24.369Z,-1.71
2023-12-23T21:29:27.362Z,-1.83
2023-12-23T21:32:30.014Z,-1.75
2023-12-23T21:35:34.640Z,-1.62
2023-12-23T21:38:38.002Z,-1.97
2023-12-23T21:41:40.679Z,-1.88
2023-12-23T21:44:43.038Z,-1.91
2023-12-23T21:47:49.109Z,-1.90
2023-12-23T21:50:55.605Z,-1.87
2023-12-23T21:53:58.287Z,-1.76
2023-12-23T21:57:00.940Z,-1.75
2023-12-23T22:00:04.461Z,-1.77
2023-12-23T22:03:06.940Z,-1.59
2023-12-23T22:06:09.559Z,-1.63
2023-12-23T22:09:15.015Z,-1.52
2023-12-23T22:12:17.365Z,-1.57
2023-12-23T22:15:20.238Z,-1.58
2023-12-23T22:18:22.852Z,-1.49
2023-12-23T22:21:25.637Z,-1.56
2023-12-23T22:24:28.128Z,-1.66
2023-12-23T22:27:30.982Z,-1.74
2023-12-23T22:30:33.632Z,-1.75
2023-12-23T22:33:36.603Z,-2.01
2023-12-23T22:36:39.529Z,-1.97
2023-12-23T22:39:48.749Z,-1.86
2023-12-23T22:42:52.746Z,-1.94
2023-12-23T22:45:58.036Z,-1.93
2023-12-23T22:49:02.936Z,-1.98
2023-12-23T22:52:05.605Z,-2.05
2023-12-23T22:55:08.609Z,-2.06
2023-12-23T22:58:12.446Z,-2.00
2023-12-23T23:01:16.283Z,-2.03
2023-12-23T23:04:18.652Z,-2.13
2023-12-23T23:07:21.294Z,-2.12
2023-12-23T23:10:23.802Z,-2.14
2023-12-23T23:13:26.358Z,-2.05
2023-12-23T23:16:29.022Z,-2.14
2023-12-23T23:19:32.359Z,-2.09
2023-12-23T23:22:35.051Z,-2.07
2023-12-23T23:25:37.365Z,-2.05
2023-12-23T23:28:39.933Z,-2.23
2023-12-23T23:31:43.071Z,-2.21
2023-12-23T23:34:46.563Z,-2.17
2023-12-23T23:37:49.353Z,-2.03
2023-12-23T23:40:51.933Z,-2.00
2023-12-23T23:43:54.524Z,-1.99
2023-12-23T23:46:56.926Z,-1.99
2023-12-23T23:50:00.093Z,-2.02
2023-12-23T23:53:03.556Z,-1.97
2023-12-23T23:56:06.546Z,-1.97
2023-12-23T23:59:10.468Z,-2.27
